Terry Peak, South Dakota
Current Conditions -  °F | °C
As of 1:15 PM on Saturday 20 Dec 2014 (Local Time) from KSPF Reporting Station
Clear Clear  
Wind Chill: 41°   Ceiling: Unl
Heat Index: 46°   Visibility: 10mi
Dew Point: 23°   Wind: 10mph
Humidity: 40%   Direction: 290°WNW
Pressure: 29.89"   Gusts: NA
Location:  44.253°N, 103.912°W
Report Text: KSPF 202015Z AUTO 29009KT 10SM CLR 08/M05 A2989 RMK AO2
Loading
Personal Weather Stations






























Interactive Weather Map New forecast layout! Learn more

10-Day Weather Forecast

Advertisements
Track Severe Weather on mobile